createdAt,value
2022-10-09T00:00:21.082Z,33
2022-10-09T00:05:26.213Z,33
2022-10-09T00:10:31.362Z,32
2022-10-09T00:15:36.509Z,32
2022-10-09T00:20:41.557Z,32
2022-10-09T00:25:46.659Z,33
2022-10-09T00:30:51.792Z,32
2022-10-09T00:35:57.919Z,32
2022-10-09T00:41:03.986Z,32
2022-10-09T00:46:10.091Z,32
2022-10-09T00:51:16.170Z,32
2022-10-09T00:56:22.271Z,32
2022-10-09T01:01:28.384Z,32
2022-10-09T01:06:34.480Z,32
2022-10-09T01:11:40.561Z,32
2022-10-09T01:16:46.663Z,32
2022-10-09T01:21:52.756Z,31
2022-10-09T01:26:58.924Z,31
2022-10-09T01:32:04.954Z,32
2022-10-09T01:37:10.078Z,32
2022-10-09T01:42:16.173Z,32
2022-10-09T01:47:22.314Z,32
2022-10-09T01:52:28.377Z,32
2022-10-09T01:57:34.454Z,32
2022-10-09T02:02:40.610Z,32
2022-10-09T02:07:46.677Z,32
2022-10-09T02:12:51.770Z,32
2022-10-09T02:17:56.929Z,32
2022-10-09T02:23:02.014Z,32
2022-10-09T02:28:07.265Z,32
2022-10-09T02:33:13.231Z,32
2022-10-09T02:38:19.317Z,32
2022-10-09T02:43:25.425Z,32
2022-10-09T02:48:31.532Z,32
2022-10-09T02:53:37.629Z,32
2022-10-09T02:58:43.728Z,32
2022-10-09T03:03:49.812Z,32
2022-10-09T03:08:55.962Z,32
2022-10-09T03:14:02.006Z,32
2022-10-09T03:19:08.122Z,32
2022-10-09T03:24:14.226Z,32
2022-10-09T03:29:20.311Z,32
2022-10-09T03:34:25.456Z,32
2022-10-09T03:39:31.529Z,31
2022-10-09T03:44:37.670Z,32
2022-10-09T03:49:43.734Z,32
2022-10-09T03:54:49.823Z,32
2022-10-09T03:59:55.935Z,32
2022-10-09T04:05:02.017Z,31
2022-10-09T04:10:07.245Z,32
2022-10-09T04:15:12.242Z,32
2022-10-09T04:20:17.386Z,32
2022-10-09T04:25:22.497Z,32
2022-10-09T04:30:28.634Z,32
2022-10-09T04:35:34.697Z,32
2022-10-09T04:40:40.794Z,32
2022-10-09T04:45:46.892Z,32
2022-10-09T04:50:52.985Z,32
2022-10-09T04:55:59.067Z,32
2022-10-09T05:01:05.192Z,32
2022-10-09T05:06:11.274Z,31
2022-10-09T05:11:17.366Z,31
2022-10-09T05:16:23.486Z,31
2022-10-09T05:21:29.611Z,32
2022-10-09T05:26:35.684Z,31
2022-10-09T05:31:40.789Z,32
2022-10-09T05:36:46.879Z,32
2022-10-09T05:41:52.991Z,32
2022-10-09T05:46:59.083Z,31
2022-10-09T05:52:05.194Z,32
2022-10-09T05:57:11.277Z,32
2022-10-09T06:02:17.374Z,31
2022-10-09T06:07:22.494Z,31
2022-10-09T06:12:27.619Z,31
2022-10-09T06:17:32.764Z,31
2022-10-09T06:22:37.849Z,30
2022-10-09T06:27:44.069Z,31
2022-10-09T06:32:50.154Z,32
2022-10-09T06:37:56.180Z,32
2022-10-09T06:43:02.271Z,32
2022-10-09T06:48:08.348Z,32
2022-10-09T06:53:14.445Z,32
2022-10-09T06:58:20.534Z,32
2022-10-09T07:03:26.652Z,33
2022-10-09T07:08:32.756Z,33
2022-10-09T07:13:38.924Z,33
2022-10-09T07:18:44.945Z,33
2022-10-09T07:23:51.056Z,34
2022-10-09T07:28:56.140Z,34
2022-10-09T07:34:02.356Z,34
2022-10-09T07:39:08.348Z,34
2022-10-09T07:44:14.441Z,33
2022-10-09T07:49:20.537Z,33
2022-10-09T07:54:26.669Z,33
2022-10-09T07:59:32.721Z,32
2022-10-09T08:04:37.919Z,28
2022-10-09T08:09:42.947Z,26.5
2022-10-09T08:14:49.052Z,26.5
2022-10-09T08:19:55.186Z,26.5
2022-10-09T08:25:01.301Z,26.5
2022-10-09T08:30:07.342Z,27
2022-10-09T08:35:13.606Z,27
2022-10-09T08:40:19.536Z,26.5
2022-10-09T08:45:25.648Z,26.5
2022-10-09T08:50:31.764Z,27
2022-10-09T08:55:37.934Z,27
2022-10-09T09:00:43.929Z,27
2022-10-09T09:05:50.014Z,27
2022-10-09T09:10:56.109Z,27
2022-10-09T09:16:01.229Z,27
2022-10-09T09:21:07.350Z,27
2022-10-09T09:26:13.405Z,27
2022-10-09T09:31:19.542Z,27
2022-10-09T09:36:25.600Z,27
2022-10-09T09:41:31.689Z,27
2022-10-09T09:46:37.835Z,27
2022-10-09T09:51:42.925Z,27
2022-10-09T09:56:48.025Z,27
2022-10-09T10:01:53.135Z,27
2022-10-09T10:12:04.366Z,27
2022-10-09T10:17:10.443Z,27
2022-10-09T10:22:16.539Z,27
2022-10-09T10:27:22.643Z,27
2022-10-09T10:32:28.739Z,27
2022-10-09T10:37:34.843Z,27
2022-10-09T10:42:40.917Z,27
2022-10-09T10:47:47.054Z,27
2022-10-09T10:52:53.149Z,27
2022-10-09T10:57:59.292Z,27
2022-10-09T11:03:05.441Z,27
2022-10-09T11:08:11.424Z,27
2022-10-09T11:13:16.505Z,27
2022-10-09T11:18:22.602Z,26.5
2022-10-09T11:23:28.742Z,27
2022-10-09T11:28:34.793Z,26.5
2022-10-09T11:33:40.937Z,26.5
2022-10-09T11:38:47.064Z,27
2022-10-09T11:43:53.106Z,27
2022-10-09T11:48:59.180Z,27
2022-10-09T11:54:04.321Z,26.5
2022-10-09T11:59:09.521Z,27
2022-10-09T12:04:14.535Z,26.5
2022-10-09T12:09:19.683Z,27
2022-10-09T12:14:24.858Z,26.5
2022-10-09T12:19:29.883Z,26.5
2022-10-09T12:24:34.965Z,27
2022-10-09T12:29:40.124Z,27
2022-10-09T12:34:46.183Z,26
2022-10-09T12:39:52.318Z,26.5
2022-10-09T12:44:58.408Z,26.5
2022-10-09T12:50:04.466Z,27
2022-10-09T12:55:10.579Z,26.5
2022-10-09T13:00:16.663Z,26.5
2022-10-09T13:05:22.844Z,27
2022-10-09T13:10:28.852Z,27
2022-10-09T13:15:34.958Z,27
2022-10-09T13:20:41.059Z,27
2022-10-09T13:25:47.146Z,26
2022-10-09T13:30:53.249Z,27
2022-10-09T13:35:58.350Z,27
2022-10-09T13:41:04.447Z,27
2022-10-09T13:46:10.541Z,27
2022-10-09T13:51:16.642Z,27
2022-10-09T13:56:22.725Z,27
2022-10-09T14:01:28.837Z,27
2022-10-09T14:06:34.989Z,27
2022-10-09T14:11:40.042Z,27
2022-10-09T14:16:45.159Z,26.5
2022-10-09T14:21:50.287Z,26.5
2022-10-09T14:26:55.387Z,27
2022-10-09T14:32:01.487Z,26.5
2022-10-09T14:37:07.573Z,26.5
2022-10-09T14:42:13.668Z,26.5
2022-10-09T14:47:19.766Z,27
2022-10-09T14:52:25.861Z,27
2022-10-09T14:57:31.965Z,27
2022-10-09T15:02:38.049Z,27
2022-10-09T15:07:44.152Z,27
2022-10-09T15:12:50.238Z,27
2022-10-09T15:17:56.346Z,27
2022-10-09T15:23:02.431Z,27
2022-10-09T15:28:08.527Z,27
2022-10-09T15:33:13.628Z,26.5
2022-10-09T15:38:19.721Z,27
2022-10-09T15:43:25.835Z,26.5
2022-10-09T15:48:31.930Z,27
2022-10-09T15:53:38.042Z,27
2022-10-09T15:58:44.122Z,27
2022-10-09T16:03:50.230Z,26.5
2022-10-09T16:08:55.338Z,26.5
2022-10-09T16:14:17.742Z,26.5
2022-10-09T16:19:06.886Z,26.5
2022-10-09T16:24:11.666Z,27
2022-10-09T16:29:16.790Z,27
2022-10-09T16:34:22.876Z,27
2022-10-09T16:39:28.966Z,34
2022-10-09T16:44:35.059Z,35.5
2022-10-09T16:49:41.158Z,35.5
2022-10-09T16:54:47.258Z,35.5
2022-10-09T16:59:53.357Z,35.5
2022-10-09T17:04:59.453Z,35.5
2022-10-09T17:10:05.559Z,35.5
2022-10-09T17:15:11.639Z,35.5
2022-10-09T17:20:17.750Z,34
2022-10-09T17:25:23.855Z,34
2022-10-09T17:30:29.939Z,34
2022-10-09T17:35:35.048Z,34
2022-10-09T17:40:41.161Z,34
2022-10-09T17:45:47.234Z,34.5
2022-10-09T17:50:53.345Z,34
2022-10-09T17:55:59.463Z,34.5
2022-10-09T18:01:05.532Z,33
2022-10-09T18:06:11.622Z,33
2022-10-09T18:11:16.777Z,33
2022-10-09T18:16:21.868Z,33
2022-10-09T18:21:27.957Z,33
2022-10-09T18:26:34.063Z,34
2022-10-09T18:31:40.156Z,34.5
2022-10-09T18:36:46.247Z,34.5
2022-10-09T18:41:52.344Z,34
2022-10-09T18:46:58.449Z,34
2022-10-09T18:52:04.529Z,33
2022-10-09T18:57:10.631Z,33
2022-10-09T19:02:16.727Z,34
2022-10-09T19:07:22.823Z,33
2022-10-09T19:12:28.928Z,34.5
2022-10-09T19:17:35.009Z,33
2022-10-09T19:22:40.118Z,34.5
2022-10-09T19:27:46.221Z,33
2022-10-09T19:32:52.333Z,34
2022-10-09T19:37:58.422Z,34
2022-10-09T19:43:04.512Z,33
2022-10-09T19:48:10.615Z,33
2022-10-09T19:53:16.715Z,33
2022-10-09T19:58:21.825Z,33
2022-10-09T20:03:26.956Z,33
2022-10-09T20:08:32.067Z,33
2022-10-09T20:13:37.176Z,33
2022-10-09T20:18:43.274Z,33
2022-10-09T20:23:49.364Z,33
2022-10-09T20:34:01.572Z,33
2022-10-09T20:39:07.666Z,33
2022-10-09T20:44:13.757Z,33
2022-10-09T20:49:19.852Z,33
2022-10-09T20:54:25.965Z,33
2022-10-09T20:59:32.044Z,33
2022-10-09T21:04:38.139Z,33
2022-10-09T21:09:44.238Z,33
2022-10-09T21:14:50.352Z,33
2022-10-09T21:19:55.456Z,33
2022-10-09T21:25:01.557Z,33
2022-10-09T21:30:07.653Z,33
2022-10-09T21:35:13.754Z,33
2022-10-09T21:40:19.882Z,33
2022-10-09T21:45:25.945Z,33
2022-10-09T21:50:32.039Z,33
2022-10-09T21:55:38.144Z,33
2022-10-09T22:00:43.266Z,33
2022-10-09T22:05:48.373Z,33
2022-10-09T22:10:53.505Z,33
2022-10-09T22:15:58.624Z,33
2022-10-09T22:21:04.718Z,33
2022-10-09T22:26:10.802Z,33
2022-10-09T22:31:16.907Z,33
2022-10-09T22:36:22.987Z,33
2022-10-09T22:41:29.086Z,33
2022-10-09T22:46:35.192Z,33
2022-10-09T22:51:41.294Z,33
2022-10-09T22:56:47.403Z,33
2022-10-09T23:01:53.569Z,33
2022-10-09T23:06:59.577Z,33
2022-10-09T23:12:05.686Z,33
2022-10-09T23:17:11.782Z,33
2022-10-09T23:22:16.903Z,33
2022-10-09T23:27:22.983Z,33
2022-10-09T23:32:29.082Z,33
2022-10-09T23:37:35.195Z,34
2022-10-09T23:42:41.312Z,34
2022-10-09T23:47:47.392Z,32
2022-10-09T23:52:53.479Z,32
2022-10-09T23:57:58.610Z,32
